This is the latest recevied weather packets stored in our database for station/object WD4IXD-WX. If no packets are shown the sender has not sent any weather packets the latest 10 day(s).
| Time | Temp. | Humidity | Pressure | Rain* | Wind** | Luminosity | Snow |
|---|---|---|---|---|---|---|---|
| 1777501503 | 7.22° C | 30% | 1018.2 hPa | 0 mm | - | 301 W/m² | - |
| 1777501204 | 7.22° C | 29% | 1018.2 hPa | 0 mm | - | 211 W/m² | - |
| 1777500905 | 7.22° C | 29% | 1018.3 hPa | 0 mm | - | 204 W/m² | - |
| 1777500604 | 7.22° C | 31% | 1018.3 hPa | 0 mm | - | 241 W/m² | - |
| 1777500304 | 7.22° C | 32% | 1018.4 hPa | 0 mm | - | 352 W/m² | - |
| 1777500004 | 7.22° C | 33% | 1018.5 hPa | 0 mm | - | 315 W/m² | - |
| 1777499704 | 7.22° C | 33% | 1018.5 hPa | 0 mm | - | 420 W/m² | - |
| 1777499404 | 6.67° C | 35% | 1018.4 hPa | 0 mm | - | 809 W/m² | - |
| 1777499104 | 6.67° C | 36% | 1018.6 hPa | 0 mm | - | 812 W/m² | - |
| 1777498804 | 6.11° C | 40% | 1018.6 hPa | 0 mm | - | 816 W/m² | - |
| 1777498504 | 5.56° C | 42% | 1018.7 hPa | 0 mm | - | 877 W/m² | - |
| 1777498204 | 5° C | 42% | 1018.8 hPa | 0 mm | - | 459 W/m² | - |
| 1777497904 | 4.44° C | 43% | 1018.9 hPa | 0 mm | - | 269 W/m² | - |
| 1777497604 | 4.44° C | 44% | 1018.9 hPa | 0 mm | - | 151 W/m² | - |
| 1777497304 | 4.44° C | 44% | 1018.9 hPa | 0 mm | - | 121 W/m² | - |
| 1777497004 | 5.56° C | 42% | 1018.7 hPa | 0 mm | - | 107 W/m² | - |
| 1777496704 | 6.67° C | 39% | 1018.6 hPa | 0 mm | - | 146 W/m² | - |
| 1777496404 | 7.22° C | 29% | 1018.6 hPa | 0 mm | - | 169 W/m² | - |
| 1777496104 | 7.78° C | 29% | 1018.6 hPa | 0 mm | - | 186 W/m² | - |
| 1777495804 | 7.78° C | 30% | 1018.6 hPa | 0 mm | - | 840 W/m² | - |
| 1777495504 | 7.22° C | 30% | 1018.6 hPa | 0 mm | - | 482 W/m² | - |
| 1777495204 | 7.22° C | 29% | 1018.5 hPa | 0 mm | - | 513 W/m² | - |
| 1777494904 | 7.22° C | 28% | 1018.5 hPa | 0 mm | - | 640 W/m² | - |
| 1777494604 | 7.22° C | 27% | 1018.5 hPa | 0 mm | - | 496 W/m² | - |
| 1777494303 | 7.78° C | 26% | 1018.5 hPa | 0 mm | - | 378 W/m² | - |
* Rain latest hour (hover to see other rain measurements)
** Current wind speed in m/s (hover to see current wind gust speed)